createdAt,value
2018-06-01T00:00:28.348Z,18.78
2018-06-01T00:01:28.543Z,18.74
2018-06-01T00:02:28.342Z,18.74
2018-06-01T00:03:28.357Z,18.73
2018-06-01T00:04:28.352Z,18.78
2018-06-01T00:05:28.367Z,18.77
2018-06-01T00:06:28.572Z,18.65
2018-06-01T00:07:28.354Z,18.63
2018-06-01T00:08:28.561Z,18.62
2018-06-01T00:09:28.383Z,18.58
2018-06-01T00:10:28.374Z,18.55
2018-06-01T00:11:28.366Z,18.59
2018-06-01T00:12:28.598Z,18.63
2018-06-01T00:13:28.388Z,18.62
2018-06-01T00:14:28.374Z,18.73
2018-06-01T00:15:28.389Z,18.73
2018-06-01T00:16:28.601Z,18.71
2018-06-01T00:17:28.383Z,18.74
2018-06-01T00:18:28.387Z,18.63
2018-06-01T00:19:28.388Z,18.71
2018-06-01T00:20:28.595Z,18.62
2018-06-01T00:21:28.395Z,18.74
2018-06-01T00:22:28.414Z,18.60
2018-06-01T00:23:28.412Z,18.74
2018-06-01T00:24:28.609Z,18.65
2018-06-01T00:25:28.638Z,18.74
2018-06-01T00:26:28.433Z,18.77
2018-06-01T00:27:28.643Z,18.81
2018-06-01T00:28:28.415Z,18.73
2018-06-01T00:29:28.633Z,18.75
2018-06-01T00:30:28.419Z,18.78
2018-06-01T00:31:28.436Z,18.75
2018-06-01T00:32:28.455Z,18.77
2018-06-01T00:33:28.429Z,18.83
2018-06-01T00:34:28.432Z,18.93
2018-06-01T00:35:28.653Z,18.96
2018-06-01T00:36:28.655Z,18.88
2018-06-01T00:37:28.655Z,18.89
2018-06-01T00:38:28.661Z,18.86
2018-06-01T00:39:28.470Z,18.89
2018-06-01T00:40:28.460Z,18.77
2018-06-01T00:41:28.450Z,18.80
2018-06-01T00:42:28.466Z,18.60
2018-06-01T00:43:28.461Z,18.63
2018-06-01T00:44:28.675Z,18.63
2018-06-01T00:45:28.491Z,18.65
2018-06-01T00:46:28.489Z,18.68
2018-06-01T00:47:28.485Z,18.73
2018-06-01T00:48:28.470Z,18.77
2018-06-01T00:49:28.497Z,18.77
2018-06-01T00:50:28.495Z,18.81
2018-06-01T00:51:28.682Z,18.75
2018-06-01T00:52:28.703Z,18.81
2018-06-01T00:53:28.488Z,18.86
2018-06-01T00:54:28.488Z,18.96
2018-06-01T00:55:28.494Z,18.83
2018-06-01T00:56:28.507Z,18.78
2018-06-01T00:57:28.527Z,18.84
2018-06-01T00:58:28.729Z,18.90
2018-06-01T00:59:28.531Z,18.92
2018-06-01T01:00:28.506Z,18.95
2018-06-01T01:01:28.711Z,19.07
2018-06-01T01:02:28.543Z,18.99
2018-06-01T01:03:28.524Z,19.11
2018-06-01T01:04:28.518Z,19.07
2018-06-01T01:05:28.737Z,19.14
2018-06-01T01:06:28.533Z,19.12
2018-06-01T01:07:28.535Z,19.16
2018-06-01T01:08:28.528Z,19.14
2018-06-01T01:09:28.747Z,19.26
2018-06-01T01:10:28.536Z,19.24
2018-06-01T01:11:28.565Z,19.21
2018-06-01T01:12:28.540Z,19.27
2018-06-01T01:13:28.557Z,19.24
2018-06-01T01:14:28.547Z,19.30
2018-06-01T01:15:28.555Z,19.39
2018-06-01T01:16:28.565Z,19.39
2018-06-01T01:17:28.566Z,19.36
2018-06-01T01:18:28.775Z,19.34
2018-06-01T01:19:28.574Z,19.48
2018-06-01T01:20:28.577Z,19.34
2018-06-01T01:21:28.583Z,19.45
2018-06-01T01:22:28.783Z,19.49
2018-06-01T01:23:28.776Z,19.48
2018-06-01T01:24:28.599Z,19.51
2018-06-01T01:25:28.608Z,19.52
2018-06-01T01:26:28.600Z,19.48
2018-06-01T01:27:28.587Z,19.55
2018-06-01T01:28:28.603Z,19.54
2018-06-01T01:29:28.601Z,19.59
2018-06-01T01:30:28.622Z,19.56
2018-06-01T01:31:28.599Z,19.62
2018-06-01T01:32:28.827Z,19.55
2018-06-01T01:33:28.620Z,19.59
2018-06-01T01:34:28.611Z,19.69
2018-06-01T01:35:28.611Z,19.62
2018-06-01T01:36:28.819Z,19.70
2018-06-01T01:37:28.617Z,19.70
2018-06-01T01:38:28.621Z,19.70
2018-06-01T01:39:28.625Z,19.62
2018-06-01T01:40:28.629Z,19.63
2018-06-01T01:41:28.637Z,19.76
2018-06-01T01:42:28.634Z,19.56
2018-06-01T01:43:28.635Z,19.58
2018-06-01T01:44:28.638Z,19.54
2018-06-01T01:45:28.646Z,19.62
2018-06-01T01:46:28.659Z,19.59
2018-06-01T01:47:28.648Z,19.52
2018-06-01T01:48:28.665Z,19.48
2018-06-01T01:49:28.857Z,19.45
2018-06-01T01:50:28.667Z,19.45
2018-06-01T01:51:28.665Z,19.47
2018-06-01T01:52:28.666Z,19.47
2018-06-01T01:53:28.679Z,19.58
2018-06-01T01:54:28.884Z,19.47
2018-06-01T01:55:28.675Z,19.54
2018-06-01T01:56:28.694Z,19.59
2018-06-01T01:57:28.697Z,19.58
2018-06-01T01:58:28.885Z,19.56
2018-06-01T01:59:28.688Z,19.55
2018-06-01T02:00:28.708Z,19.62
2018-06-01T02:01:28.703Z,19.47
2018-06-01T02:02:28.710Z,19.51
2018-06-01T02:03:28.701Z,19.48
2018-06-01T02:04:28.727Z,19.44
2018-06-01T02:05:28.712Z,19.40
2018-06-01T02:06:28.712Z,19.41
2018-06-01T02:07:28.711Z,19.45
2018-06-01T02:08:28.729Z,19.45
2018-06-01T02:09:28.733Z,19.41
2018-06-01T02:10:28.729Z,19.41
2018-06-01T02:11:28.941Z,19.34
2018-06-01T02:12:28.752Z,19.36
2018-06-01T02:13:28.745Z,19.31
2018-06-01T02:14:28.948Z,19.31
2018-06-01T02:15:28.952Z,19.26
2018-06-01T02:16:28.753Z,19.29
2018-06-01T02:17:28.759Z,19.16
2018-06-01T02:18:28.745Z,19.29
2018-06-01T02:19:28.961Z,19.29
2018-06-01T02:20:28.957Z,19.19
2018-06-01T02:21:28.968Z,19.21
2018-06-01T02:22:28.962Z,19.21
2018-06-01T02:23:28.973Z,19.21
2018-06-01T02:24:28.776Z,19.19
2018-06-01T02:25:28.765Z,19.14
2018-06-01T02:26:28.780Z,19.12
2018-06-01T02:27:28.974Z,19.21
2018-06-01T02:28:28.778Z,19.12
2018-06-01T02:29:28.795Z,19.08
2018-06-01T02:30:28.780Z,19.15
2018-06-01T02:31:28.797Z,19.19
2018-06-01T02:32:28.803Z,19.18
2018-06-01T02:33:28.803Z,19.15
2018-06-01T02:34:28.791Z,19.12
2018-06-01T02:35:28.798Z,19.21
2018-06-01T02:36:28.813Z,19.19
2018-06-01T02:37:29.007Z,19.29
2018-06-01T02:38:28.828Z,19.27
2018-06-01T02:39:28.809Z,19.27
2018-06-01T02:40:28.812Z,19.27
2018-06-01T02:41:28.829Z,19.24
2018-06-01T02:42:28.816Z,19.19
2018-06-01T02:43:29.023Z,19.24
2018-06-01T02:44:28.835Z,19.29
2018-06-01T02:45:28.825Z,19.27
2018-06-01T02:46:28.830Z,19.29
2018-06-01T02:47:28.848Z,19.15
2018-06-01T02:48:28.855Z,19.22
2018-06-01T02:49:28.837Z,19.15
2018-06-01T02:50:28.855Z,19.18
2018-06-01T02:51:28.872Z,19.09
2018-06-01T02:52:28.860Z,19.24
2018-06-01T02:53:28.852Z,19.15
2018-06-01T02:54:28.870Z,19.18
2018-06-01T02:55:29.056Z,19.14
2018-06-01T02:56:29.071Z,19.14
2018-06-01T02:57:28.861Z,19.04
2018-06-01T02:58:29.065Z,19.11
2018-06-01T02:59:28.887Z,19.09
2018-06-01T03:00:29.092Z,19.08
2018-06-01T03:01:29.076Z,18.99
2018-06-01T03:02:28.892Z,18.96
2018-06-01T03:03:28.894Z,18.98
2018-06-01T03:04:28.895Z,18.95
2018-06-01T03:05:28.896Z,18.98
2018-06-01T03:06:28.915Z,18.92
2018-06-01T03:07:28.890Z,18.96
2018-06-01T03:08:28.921Z,18.93
2018-06-01T03:09:28.911Z,18.90
2018-06-01T03:10:28.917Z,19.02
2018-06-01T03:11:28.929Z,19.02
2018-06-01T03:12:28.916Z,19.11
2018-06-01T03:13:28.922Z,19.04
2018-06-01T03:14:28.909Z,19.02
2018-06-01T03:15:29.121Z,19.02
2018-06-01T03:16:28.928Z,19.08
2018-06-01T03:17:28.927Z,19.14
2018-06-01T03:18:29.145Z,19.16
2018-06-01T03:19:28.943Z,19.18
2018-06-01T03:20:28.936Z,19.14
2018-06-01T03:21:28.936Z,19.24
2018-06-01T03:22:28.945Z,19.18
2018-06-01T03:23:28.932Z,19.14
2018-06-01T03:24:28.957Z,19.16
2018-06-01T03:25:28.937Z,19.19
2018-06-01T03:26:29.172Z,19.26
2018-06-01T03:27:28.940Z,19.24
2018-06-01T03:28:28.944Z,19.30
2018-06-01T03:29:28.948Z,19.24
2018-06-01T03:30:28.951Z,19.22
2018-06-01T03:31:28.953Z,19.26
2018-06-01T03:32:29.173Z,19.26
2018-06-01T03:33:28.961Z,19.29
2018-06-01T03:34:28.990Z,19.24
2018-06-01T03:35:28.983Z,19.27
2018-06-01T03:36:28.977Z,19.29
2018-06-01T03:37:28.981Z,19.22
2018-06-01T03:38:29.187Z,19.29
2018-06-01T03:39:29.179Z,19.26
2018-06-01T03:40:28.986Z,19.24
2018-06-01T03:41:28.979Z,19.19
2018-06-01T03:42:28.981Z,19.16
2018-06-01T03:43:29.006Z,19.19
2018-06-01T03:44:28.987Z,19.19
2018-06-01T03:45:29.008Z,19.19
2018-06-01T03:46:28.994Z,19.18
2018-06-01T03:47:28.994Z,19.15
2018-06-01T03:48:29.002Z,19.14
2018-06-01T03:49:29.012Z,19.15
2018-06-01T03:50:29.007Z,19.16
2018-06-01T03:51:29.010Z,19.15
2018-06-01T03:52:29.088Z,19.24
2018-06-01T03:53:29.017Z,19.16
2018-06-01T03:54:29.016Z,19.12
2018-06-01T03:55:29.019Z,19.16
2018-06-01T03:56:29.022Z,19.21
2018-06-01T03:57:29.237Z,19.15
2018-06-01T03:58:29.038Z,19.14
2018-06-01T03:59:29.230Z,19.12
2018-06-01T04:00:29.233Z,19.18
2018-06-01T04:01:29.044Z,19.18
2018-06-01T04:02:29.051Z,19.18
2018-06-01T04:04:29.244Z,19.18
2018-06-01T04:05:29.248Z,19.21
2018-06-01T04:06:29.249Z,19.19
2018-06-01T04:07:29.251Z,19.19
2018-06-01T04:08:29.065Z,19.09
2018-06-01T04:09:29.058Z,19.14
2018-06-01T04:10:29.063Z,19.26
2018-06-01T04:11:29.274Z,19.26
2018-06-01T04:12:29.275Z,19.21
2018-06-01T04:13:29.078Z,19.22
2018-06-01T04:14:29.069Z,19.21
2018-06-01T04:15:29.081Z,19.27
2018-06-01T04:16:29.084Z,19.30
2018-06-01T04:17:29.095Z,19.37
2018-06-01T04:18:29.087Z,19.33
2018-06-01T04:19:29.286Z,19.40
2018-06-01T04:20:29.089Z,19.49
2018-06-01T04:21:29.306Z,19.44
2018-06-01T04:22:29.295Z,19.49
2018-06-01T04:23:29.096Z,19.49
2018-06-01T04:24:29.096Z,19.56
2018-06-01T04:25:29.111Z,19.58
2018-06-01T04:26:29.130Z,19.55
2018-06-01T04:27:29.329Z,19.54
2018-06-01T04:28:29.124Z,19.56
2018-06-01T04:29:29.124Z,19.55
2018-06-01T04:30:29.319Z,19.67
2018-06-01T04:31:29.119Z,19.69
2018-06-01T04:32:29.138Z,19.76
2018-06-01T04:33:29.142Z,19.74
2018-06-01T04:34:29.139Z,19.64
2018-06-01T04:35:29.131Z,19.76
2018-06-01T04:36:29.351Z,19.74
2018-06-01T04:37:29.154Z,19.77
2018-06-01T04:38:29.142Z,19.81
2018-06-01T04:39:29.346Z,19.86
2018-06-01T04:40:29.148Z,19.74
2018-06-01T04:41:29.179Z,19.81
2018-06-01T04:42:29.358Z,19.89
2018-06-01T04:43:29.174Z,19.84
2018-06-01T04:44:29.392Z,19.85
2018-06-01T04:45:29.178Z,19.82
2018-06-01T04:46:29.179Z,19.88
2018-06-01T04:47:29.184Z,19.79
2018-06-01T04:48:29.176Z,19.84
2018-06-01T04:49:29.191Z,19.79
2018-06-01T04:50:29.395Z,19.76
2018-06-01T04:51:29.187Z,19.81
2018-06-01T04:52:29.191Z,19.66
2018-06-01T04:53:29.192Z,19.70
2018-06-01T04:54:29.222Z,19.64
2018-06-01T04:55:29.416Z,19.56
2018-06-01T04:56:29.229Z,19.52
2018-06-01T04:57:29.219Z,19.49
2018-06-01T04:58:29.210Z,19.41
2018-06-01T04:59:29.217Z,19.37
2018-06-01T05:00:29.227Z,19.37
2018-06-01T05:01:29.233Z,19.37
2018-06-01T05:02:29.438Z,19.40
2018-06-01T05:03:29.236Z,19.36
2018-06-01T05:04:29.441Z,19.31
2018-06-01T05:07:12.980Z,19.22
2018-06-01T05:08:12.986Z,19.18
2018-06-01T05:09:13.002Z,19.12
2018-06-01T05:10:12.984Z,19.15
2018-06-01T05:11:12.981Z,19.04
2018-06-01T05:12:12.994Z,19.08
2018-06-01T05:13:13.202Z,19.11
2018-06-01T05:14:12.999Z,19.08
2018-06-01T05:15:13.208Z,19.12
2018-06-01T05:16:13.007Z,19.16
2018-06-01T05:17:13.009Z,19.07
2018-06-01T05:18:13.005Z,19.07
2018-06-01T05:19:13.216Z,19.18
2018-06-01T05:20:13.239Z,19.14
2018-06-01T05:21:13.214Z,19.15
2018-06-01T05:22:13.034Z,19.07
2018-06-01T05:23:13.013Z,19.04
2018-06-01T05:24:13.247Z,19.07
2018-06-01T05:25:13.221Z,19.11
2018-06-01T05:26:13.037Z,19.12
2018-06-01T05:27:13.042Z,19.12
2018-06-01T05:28:13.241Z,19.02
2018-06-01T05:29:13.044Z,19.09
2018-06-01T05:30:13.035Z,18.99
2018-06-01T05:31:13.039Z,19.11
2018-06-01T05:32:13.068Z,19.04
2018-06-01T05:33:13.041Z,19.15
2018-06-01T05:34:13.045Z,19.12
2018-06-01T05:35:13.049Z,19.14
2018-06-01T05:36:13.074Z,19.15
2018-06-01T05:37:13.052Z,19.16
2018-06-01T05:38:13.063Z,19.11
2018-06-01T05:39:13.055Z,19.12
2018-06-01T05:40:13.062Z,19.12
2018-06-01T05:41:13.078Z,19.16
2018-06-01T05:42:13.067Z,19.16
2018-06-01T05:43:13.076Z,19.09
2018-06-01T05:44:13.069Z,19.12
2018-06-01T05:45:13.072Z,19.12
2018-06-01T05:46:13.089Z,19.14
2018-06-01T05:47:13.077Z,19.09
2018-06-01T05:48:13.285Z,19.04
2018-06-01T05:49:13.094Z,19.12
2018-06-01T05:50:13.100Z,19.14
2018-06-01T05:51:13.303Z,19.11
2018-06-01T05:52:13.291Z,19.21
2018-06-01T05:53:13.309Z,19.15
2018-06-01T05:54:13.110Z,19.19
2018-06-01T05:55:13.097Z,19.18
2018-06-01T05:56:13.122Z,19.15
2018-06-01T05:57:13.102Z,19.21
2018-06-01T05:58:13.107Z,19.14
2018-06-01T05:59:13.310Z,19.12
2018-06-01T06:00:13.109Z,19.12
2018-06-01T06:01:13.128Z,19.07
2018-06-01T06:02:13.320Z,19.02
2018-06-01T06:03:13.114Z,19.11
2018-06-01T06:04:13.116Z,19.00
2018-06-01T06:05:13.134Z,18.96
2018-06-01T06:06:13.133Z,18.95
2018-06-01T06:07:13.125Z,18.90
2018-06-01T06:08:13.142Z,18.90
2018-06-01T06:09:13.133Z,18.90
2018-06-01T06:10:13.140Z,18.90
2018-06-01T06:11:13.137Z,18.93
2018-06-01T06:12:13.359Z,18.90
2018-06-01T06:13:13.174Z,18.89
2018-06-01T06:14:13.153Z,18.88
2018-06-01T06:15:13.346Z,18.96
2018-06-01T06:16:13.158Z,18.93
2018-06-01T06:17:13.161Z,18.90
2018-06-01T06:18:13.152Z,18.90
2018-06-01T06:19:13.156Z,18.78
2018-06-01T06:20:13.183Z,18.81
2018-06-01T06:21:13.173Z,18.80
2018-06-01T06:22:13.174Z,18.81
2018-06-01T06:23:13.381Z,18.81
2018-06-01T06:24:13.369Z,18.75
2018-06-01T06:25:13.180Z,18.88
2018-06-01T06:26:13.186Z,18.83
2018-06-01T06:27:13.174Z,18.77
2018-06-01T06:28:13.179Z,18.81
2018-06-01T06:29:13.393Z,18.80
2018-06-01T06:30:13.182Z,18.84
2018-06-01T06:31:13.204Z,18.89
2018-06-01T06:32:13.387Z,18.88
2018-06-01T06:33:13.189Z,18.90
2018-06-01T06:34:13.198Z,18.80
2018-06-01T06:35:13.196Z,18.81
2018-06-01T06:36:13.210Z,18.83
2018-06-01T06:37:13.200Z,18.89
2018-06-01T06:38:13.199Z,18.86
2018-06-01T06:39:13.215Z,18.84
2018-06-01T06:40:13.205Z,18.88
2018-06-01T06:41:13.208Z,18.77
2018-06-01T06:42:13.209Z,18.80
2018-06-01T06:43:13.281Z,18.77
2018-06-01T06:44:13.232Z,18.78
2018-06-01T06:45:13.216Z,18.75
2018-06-01T06:46:13.219Z,18.66
2018-06-01T06:47:13.224Z,18.68
2018-06-01T06:48:13.444Z,18.78
2018-06-01T06:49:13.232Z,18.63
2018-06-01T06:50:13.228Z,18.70
2018-06-01T06:51:13.234Z,18.75
2018-06-01T06:52:13.241Z,18.78
2018-06-01T06:53:13.246Z,18.75
2018-06-01T06:54:13.250Z,18.74
2018-06-01T06:55:13.304Z,18.73
2018-06-01T06:56:13.444Z,18.77
2018-06-01T06:57:13.464Z,18.84
2018-06-01T06:58:13.260Z,18.78
2018-06-01T06:59:13.462Z,18.74
2018-06-01T07:00:13.275Z,18.80
2018-06-01T07:01:13.468Z,18.78
2018-06-01T07:02:13.274Z,18.89
2018-06-01T07:03:13.459Z,18.88
2018-06-01T07:04:13.283Z,18.90
2018-06-01T07:05:13.261Z,18.78
2018-06-01T07:06:13.274Z,18.89
2018-06-01T07:07:13.264Z,18.93
2018-06-01T07:08:13.279Z,18.98
2018-06-01T07:09:13.277Z,18.92
2018-06-01T07:10:13.473Z,18.96
2018-06-01T07:11:13.486Z,18.90
2018-06-01T07:12:13.297Z,19.04
2018-06-01T07:13:13.278Z,18.96
2018-06-01T07:14:13.291Z,18.98
2018-06-01T07:15:13.295Z,18.93
2018-06-01T07:16:13.292Z,19.07
2018-06-01T07:17:13.285Z,19.09
2018-06-01T07:18:13.313Z,19.09
2018-06-01T07:19:13.289Z,19.11
2018-06-01T07:20:13.303Z,18.95
2018-06-01T07:21:13.317Z,18.95
2018-06-01T07:22:13.499Z,18.96
2018-06-01T07:23:13.302Z,18.98
2018-06-01T07:24:13.303Z,18.90
2018-06-01T07:25:13.320Z,18.96
2018-06-01T07:26:13.509Z,18.92
2018-06-01T07:27:13.307Z,18.92
2018-06-01T07:28:13.513Z,18.93
2018-06-01T07:29:13.324Z,19.04
2018-06-01T07:30:13.314Z,19.08
2018-06-01T07:31:13.317Z,19.14
2018-06-01T07:32:13.320Z,19.00
2018-06-01T07:33:13.374Z,19.00
2018-06-01T07:34:13.324Z,19.07
2018-06-01T07:35:13.325Z,19.07
2018-06-01T07:36:13.331Z,19.08
2018-06-01T07:37:13.337Z,19.11
2018-06-01T07:38:13.334Z,19.22
2018-06-01T07:39:13.541Z,19.15
2018-06-01T07:40:13.351Z,19.14
2018-06-01T07:41:13.353Z,19.15
2018-06-01T07:42:13.343Z,19.08
2018-06-01T07:43:13.350Z,19.12
2018-06-01T07:44:13.350Z,19.02
2018-06-01T07:45:13.350Z,19.04
2018-06-01T07:46:13.363Z,19.12
2018-06-01T07:47:13.584Z,19.14
2018-06-01T07:48:13.359Z,19.08
2018-06-01T07:49:13.362Z,19.08
2018-06-01T07:50:13.366Z,19.09
2018-06-01T07:51:13.385Z,19.11
2018-06-01T07:52:13.370Z,19.09
2018-06-01T07:53:13.595Z,19.15
2018-06-01T07:54:13.384Z,19.26
2018-06-01T07:55:13.402Z,19.22
2018-06-01T07:56:13.381Z,19.27
2018-06-01T07:57:13.596Z,19.22
2018-06-01T07:58:13.389Z,19.27
2018-06-01T07:59:13.387Z,19.29
2018-06-01T08:00:13.391Z,19.24
2018-06-01T08:01:13.597Z,19.31
2018-06-01T08:02:13.465Z,19.18
2018-06-01T08:03:13.414Z,19.16
2018-06-01T08:04:13.606Z,19.21
2018-06-01T08:05:13.415Z,19.11
2018-06-01T08:06:13.420Z,19.14
2018-06-01T08:07:13.412Z,19.11
2018-06-01T08:08:13.619Z,19.16
2018-06-01T08:09:13.435Z,19.16
2018-06-01T08:10:13.420Z,19.18
2018-06-01T08:11:13.446Z,19.22
2018-06-01T08:12:13.427Z,19.14
2018-06-01T08:13:13.432Z,19.09
2018-06-01T08:14:13.446Z,19.15
2018-06-01T08:15:13.455Z,19.12
2018-06-01T08:16:13.439Z,19.04
2018-06-01T08:17:13.447Z,19.08
2018-06-01T08:18:13.457Z,19.02
2018-06-01T08:19:13.445Z,19.11
2018-06-01T08:20:13.458Z,19.09
2018-06-01T08:21:13.468Z,19.04
2018-06-01T08:22:13.457Z,19.09
2018-06-01T08:23:13.472Z,19.07
2018-06-01T08:24:13.465Z,19.02
2018-06-01T08:25:13.485Z,19.04
2018-06-01T08:26:13.468Z,19.07
2018-06-01T08:27:13.472Z,19.09
2018-06-01T08:28:13.478Z,19.02
2018-06-01T08:29:13.483Z,19.11
2018-06-01T08:30:13.492Z,19.09
2018-06-01T08:31:13.488Z,19.09
2018-06-01T08:32:13.715Z,19.11
2018-06-01T08:33:13.525Z,19.11
2018-06-01T08:34:13.706Z,19.15
2018-06-01T08:35:13.509Z,19.12
2018-06-01T08:36:13.504Z,19.18
2018-06-01T08:37:13.507Z,19.24
2018-06-01T08:38:13.507Z,19.18
2018-06-01T08:39:13.513Z,19.22
2018-06-01T08:40:13.542Z,19.16
2018-06-01T08:41:13.516Z,19.18
2018-06-01T08:42:13.534Z,19.18
2018-06-01T08:43:13.534Z,19.19
2018-06-01T08:44:13.526Z,19.22
2018-06-01T08:45:13.539Z,19.24
2018-06-01T08:46:13.745Z,19.22
2018-06-01T08:47:13.545Z,19.19
2018-06-01T08:48:13.549Z,19.26
2018-06-01T08:49:13.556Z,19.16
2018-06-01T08:50:13.550Z,19.16
2018-06-01T08:51:13.766Z,19.15
2018-06-01T08:52:13.552Z,19.21
2018-06-01T08:53:13.769Z,19.15
2018-06-01T08:54:13.570Z,19.22
2018-06-01T08:55:13.577Z,19.18
2018-06-01T08:56:13.570Z,19.18
2018-06-01T08:57:13.584Z,19.15
2018-06-01T08:58:13.786Z,19.22
2018-06-01T08:59:13.828Z,19.21
2018-06-01T09:00:13.584Z,19.26
2018-06-01T09:01:13.592Z,19.22
2018-06-01T09:02:13.601Z,19.29
2018-06-01T09:03:13.822Z,19.27
2018-06-01T09:04:13.606Z,19.24
2018-06-01T09:05:13.606Z,19.24
2018-06-01T09:06:13.607Z,19.27
2018-06-01T09:07:13.605Z,19.39
2018-06-01T09:08:13.607Z,19.36
2018-06-01T09:09:13.620Z,19.29
2018-06-01T09:10:13.730Z,19.44
2018-06-01T09:11:13.616Z,19.39
2018-06-01T09:12:13.634Z,19.41
2018-06-01T09:13:13.823Z,19.37
2018-06-01T09:14:13.624Z,19.47
2018-06-01T09:15:13.645Z,19.49
2018-06-01T09:16:13.644Z,19.48
2018-06-01T09:17:13.638Z,19.58
2018-06-01T09:18:13.643Z,19.58
2018-06-01T09:19:13.638Z,19.66
2018-06-01T09:20:13.645Z,19.59
2018-06-01T09:21:13.862Z,19.63
2018-06-01T09:22:13.693Z,19.63
2018-06-01T09:23:13.653Z,19.62
2018-06-01T09:24:13.663Z,19.67
2018-06-01T09:25:13.665Z,19.69
2018-06-01T09:26:13.665Z,19.70
2018-06-01T09:27:13.670Z,19.67
2018-06-01T09:28:13.723Z,19.70
2018-06-01T09:29:13.676Z,19.74
2018-06-01T09:30:13.679Z,19.73
2018-06-01T09:31:13.682Z,19.74
2018-06-01T09:32:13.687Z,19.74
2018-06-01T09:33:13.691Z,19.73
2018-06-01T09:34:13.692Z,19.67
2018-06-01T09:35:13.710Z,19.69
2018-06-01T09:36:13.698Z,19.73
2018-06-01T09:37:13.702Z,19.71
2018-06-01T09:38:13.708Z,19.74
2018-06-01T09:39:13.708Z,19.66
2018-06-01T09:40:13.712Z,19.76
2018-06-01T09:41:13.720Z,19.84
2018-06-01T09:42:13.718Z,19.88
2018-06-01T09:43:13.723Z,19.77
2018-06-01T09:44:13.725Z,19.89
2018-06-01T09:45:13.733Z,19.81
2018-06-01T09:46:13.732Z,19.85
2018-06-01T09:47:13.736Z,19.82
2018-06-01T09:48:13.743Z,19.77
2018-06-01T09:49:13.747Z,19.85
2018-06-01T09:50:13.755Z,19.84
2018-06-01T09:51:13.750Z,19.73
2018-06-01T09:52:13.754Z,19.86
2018-06-01T09:53:13.758Z,19.86
2018-06-01T09:54:13.766Z,19.92
2018-06-01T09:55:13.786Z,19.89
2018-06-01T09:56:13.765Z,19.92
2018-06-01T09:57:13.769Z,19.89
2018-06-01T09:58:13.978Z,20.02
2018-06-01T09:59:13.775Z,20.02
2018-06-01T10:00:13.795Z,20.03
2018-06-01T10:01:13.997Z,19.95
2018-06-01T10:02:13.796Z,20.02
2018-06-01T10:03:13.788Z,20.00
2018-06-01T10:04:13.795Z,20.02
2018-06-01T10:05:13.811Z,20.00
2018-06-01T10:06:13.813Z,20.02
2018-06-01T10:07:13.818Z,20.03
2018-06-01T10:08:13.821Z,20.04
2018-06-01T10:09:13.823Z,20.10
2018-06-01T10:10:13.811Z,20.11
2018-06-01T10:11:13.822Z,20.07
2018-06-01T10:12:13.825Z,20.10
2018-06-01T10:13:13.835Z,20.21
2018-06-01T10:14:13.838Z,20.14
2018-06-01T10:15:13.844Z,20.18
2018-06-01T10:16:13.843Z,20.18
2018-06-01T10:17:13.837Z,20.13
2018-06-01T10:18:13.838Z,20.18
2018-06-01T10:19:13.863Z,20.11
2018-06-01T10:20:13.848Z,20.25
2018-06-01T10:21:13.851Z,20.28
2018-06-01T10:22:13.864Z,20.29
2018-06-01T10:23:13.855Z,20.24
2018-06-01T10:24:13.870Z,20.25
2018-06-01T10:25:13.874Z,20.16
2018-06-01T10:26:13.916Z,20.16
2018-06-01T10:27:13.875Z,20.16
2018-06-01T10:28:13.891Z,20.26
2018-06-01T10:29:13.880Z,20.31
2018-06-01T10:30:13.912Z,20.36
2018-06-01T10:31:13.905Z,20.14
2018-06-01T10:32:13.902Z,20.19
2018-06-01T10:33:14.098Z,20.26
2018-06-01T10:34:13.910Z,20.25
2018-06-01T10:35:13.898Z,20.16
2018-06-01T10:36:13.925Z,20.25
2018-06-01T10:37:14.139Z,20.28
2018-06-01T10:38:13.936Z,20.21
2018-06-01T10:39:13.940Z,20.26
2018-06-01T10:40:13.916Z,20.21
2018-06-01T10:41:13.925Z,20.26
2018-06-01T10:42:13.950Z,20.16
2018-06-01T10:43:13.937Z,20.36
2018-06-01T10:44:13.946Z,20.26
2018-06-01T10:45:13.958Z,20.18
2018-06-01T10:46:13.937Z,20.25
2018-06-01T10:47:13.940Z,20.18
2018-06-01T10:48:13.969Z,20.21
2018-06-01T10:49:14.179Z,20.39
2018-06-01T10:50:13.950Z,20.41
2018-06-01T10:51:13.972Z,20.36
2018-06-01T10:52:13.958Z,20.37
2018-06-01T10:53:13.963Z,20.41
2018-06-01T10:54:13.965Z,20.43
2018-06-01T10:55:13.979Z,20.31
2018-06-01T10:56:13.977Z,20.50
2018-06-01T10:57:14.180Z,20.50
2018-06-01T10:58:13.978Z,20.55
2018-06-01T10:59:13.991Z,20.52
2018-06-01T11:00:14.002Z,20.66
2018-06-01T11:01:13.990Z,20.63
2018-06-01T11:02:14.004Z,20.62
2018-06-01T11:03:14.022Z,20.66
2018-06-01T11:04:14.003Z,20.65
2018-06-01T11:05:14.004Z,20.52
2018-06-01T11:06:14.007Z,20.58
2018-06-01T11:07:14.215Z,20.55
2018-06-01T11:08:14.015Z,20.56
2018-06-01T11:09:14.021Z,20.50
2018-06-01T11:10:14.021Z,20.41
2018-06-01T11:11:14.230Z,20.29
2018-06-01T11:12:14.030Z,20.28
2018-06-01T11:13:14.031Z,20.28
2018-06-01T11:14:14.252Z,20.18
2018-06-01T11:15:14.038Z,20.24
2018-06-01T11:16:14.045Z,20.11
2018-06-01T11:17:14.049Z,20.16
2018-06-01T11:18:14.254Z,20.11
2018-06-01T11:19:14.055Z,20.14
2018-06-01T11:20:14.272Z,20.21
2018-06-01T11:21:14.081Z,20.21
2018-06-01T11:22:14.074Z,20.19
2018-06-01T11:23:14.077Z,20.28
2018-06-01T11:24:14.276Z,20.31
2018-06-01T11:25:14.086Z,20.31
2018-06-01T11:26:14.090Z,20.18
2018-06-01T11:27:14.080Z,20.16
2018-06-01T11:28:14.087Z,20.36
2018-06-01T11:29:14.088Z,20.39
2018-06-01T11:30:14.103Z,20.40
2018-06-01T11:31:14.101Z,20.50
2018-06-01T11:32:14.114Z,20.47
2018-06-01T11:33:14.112Z,20.48
2018-06-01T11:34:14.105Z,20.50
2018-06-01T11:35:14.111Z,20.50
2018-06-01T11:36:14.127Z,20.55
2018-06-01T11:37:14.133Z,20.58
2018-06-01T11:38:14.133Z,20.62
2018-06-01T11:39:14.339Z,20.66
2018-06-01T11:40:14.142Z,20.59
2018-06-01T11:41:14.160Z,20.63
2018-06-01T11:42:14.362Z,20.66
2018-06-01T11:43:14.168Z,20.52
2018-06-01T11:44:14.153Z,20.50
2018-06-01T11:45:14.159Z,20.59
2018-06-01T11:46:14.352Z,20.55
2018-06-01T11:47:14.163Z,20.51
2018-06-01T11:48:14.167Z,20.60
2018-06-01T11:49:14.157Z,20.65
2018-06-01T11:50:14.161Z,20.67
2018-06-01T11:51:14.165Z,20.63
2018-06-01T11:52:14.171Z,20.77
2018-06-01T11:53:14.375Z,20.72
2018-06-01T11:54:14.378Z,20.78
2018-06-01T11:55:14.189Z,20.70
2018-06-01T11:56:14.395Z,20.67
2018-06-01T11:57:14.187Z,20.69
2018-06-01T11:58:14.404Z,20.48
2018-06-01T11:59:14.193Z,20.58
2018-06-01T12:00:14.228Z,20.48
2018-06-01T12:01:14.201Z,20.47
2018-06-01T12:02:14.206Z,20.43
2018-06-01T12:03:14.275Z,20.40
2018-06-01T12:04:14.225Z,20.39
2018-06-01T12:05:14.217Z,20.40
2018-06-01T12:06:14.230Z,20.44
2018-06-01T12:07:14.220Z,20.41
2018-06-01T12:08:14.241Z,20.41
2018-06-01T12:09:14.229Z,20.36
2018-06-01T12:10:14.447Z,20.34
2018-06-01T12:11:14.300Z,20.34
2018-06-01T12:12:14.241Z,20.29
2018-06-01T12:13:14.449Z,20.31
2018-06-01T12:14:14.246Z,20.32
2018-06-01T12:15:14.252Z,20.22
2018-06-01T12:16:14.267Z,20.19
2018-06-01T12:17:14.303Z,20.22
2018-06-01T12:18:14.261Z,20.14
2018-06-01T12:19:14.484Z,20.16
2018-06-01T12:20:14.284Z,20.10
2018-06-01T12:21:14.493Z,20.07
2018-06-01T12:22:14.288Z,20.04
2018-06-01T12:23:14.335Z,20.14
2018-06-01T12:24:14.282Z,19.99
2018-06-01T12:25:14.291Z,20.03
2018-06-01T12:26:14.310Z,19.96
2018-06-01T12:27:14.298Z,19.86
2018-06-01T12:28:14.303Z,19.84
2018-06-01T12:29:14.383Z,20.02
2018-06-01T12:30:14.316Z,19.99
2018-06-01T12:31:14.333Z,20.02
2018-06-01T12:32:14.328Z,19.95
2018-06-01T12:33:14.516Z,19.91
2018-06-01T12:34:14.323Z,19.91
2018-06-01T12:35:14.523Z,19.91
2018-06-01T12:36:14.359Z,19.94
2018-06-01T12:37:14.532Z,19.96
2018-06-01T12:38:14.330Z,19.99
2018-06-01T12:39:14.335Z,20.04
2018-06-01T12:40:14.338Z,20.02
2018-06-01T12:41:14.564Z,20.00
2018-06-01T12:42:14.347Z,20.03
2018-06-01T12:43:14.347Z,20.00
2018-06-01T12:44:14.357Z,20.02
2018-06-01T12:45:14.355Z,20.02
2018-06-01T12:46:14.360Z,20.03
2018-06-01T12:47:14.377Z,20.02
2018-06-01T12:48:14.376Z,20.06
2018-06-01T12:49:14.369Z,20.02
2018-06-01T12:50:14.373Z,20.02
2018-06-01T12:51:14.373Z,19.94
2018-06-01T12:52:14.387Z,19.99
2018-06-01T12:53:14.395Z,19.89
2018-06-01T12:54:14.390Z,19.84
2018-06-01T12:55:14.389Z,19.88